Time;durP1;ratioP1;P1;durP2;ratioP2;P2;SDS_P1;SDS_P2;PMS_P1;PMS_P2;Temp;Humidity;BMP_temperature;BMP_pressure;BME280_temperature;BME280_humidity;BME280_pressure;Samples;Min_cycle;Max_cycle;Signal;HPM_P1;HPM_P2
2022/02/04 00:07:03;;;;;;;14.85;12.85;;;7.90;99.90;;;;;;4938658;29;20036;-87
2022/02/04 00:20:35;;;;;;;15.30;12.35;;;7.90;99.90;;;;;;4937154;29;20078;-87
2022/02/04 00:23:26;;;;;;;13.48;11.50;;;7.60;99.90;;;;;;4921033;29;20032;-87
2022/02/04 00:26:02;;;;;;;14.27;11.60;;;7.60;99.90;;;;;;4919061;29;20481;-86
2022/02/04 00:28:40;;;;;;;13.10;10.93;;;7.80;99.90;;;;;;4946785;29;20118;-86
2022/02/04 00:33:37;;;;;;;11.93;10.43;;;7.50;99.90;;;;;;4938295;29;20529;-86
2022/02/04 00:36:16;;;;;;;13.55;10.15;;;8.10;99.90;;;;;;4937826;29;20027;-87
2022/02/04 00:38:46;;;;;;;13.27;10.65;;;7.60;99.90;;;;;;4937877;29;20465;-86
2022/02/04 00:41:14;;;;;;;13.77;10.32;;;8.00;99.90;;;;;;4936002;29;20031;-86
2022/02/04 00:43:41;;;;;;;12.13;10.07;;;7.50;99.90;;;;;;4935763;29;20087;-87
2022/02/04 00:46:14;;;;;;;12.07;10.45;;;7.50;99.90;;;;;;4939305;29;20408;-87
2022/02/04 00:49:00;;;;;;;11.38;9.00;;;7.40;99.90;;;;;;4937985;29;20031;-87
2022/02/04 00:51:41;;;;;;;11.95;9.95;;;7.80;99.90;;;;;;4938137;29;20378;-87
2022/02/04 00:54:39;;;;;;;11.65;10.25;;;7.40;99.90;;;;;;4939010;29;20559;-87
2022/02/04 00:57:14;;;;;;;13.75;10.38;;;7.40;99.90;;;;;;4944315;29;20087;-86
2022/02/04 01:13:37;;;;;;;12.38;10.23;;;7.50;99.90;;;;;;4942588;29;20038;-87
2022/02/04 01:27:00;;;;;;;14.38;10.68;;;7.10;99.90;;;;;;4941822;29;20039;-86
2022/02/04 01:29:30;;;;;;;11.65;9.98;;;7.30;99.90;;;;;;4941111;29;20104;-87
2022/02/04 01:31:56;;;;;;;13.02;10.02;;;7.60;99.90;;;;;;4921982;29;20042;-86
2022/02/04 01:34:21;;;;;;;11.40;10.13;;;7.30;99.90;;;;;;4942122;29;20019;-86
2022/02/04 01:36:47;;;;;;;12.88;10.50;;;7.30;99.90;;;;;;4940847;29;20087;-86
2022/02/04 01:39:12;;;;;;;11.32;10.10;;;7.30;99.90;;;;;;4940566;29;20054;-86
2022/02/04 01:41:38;;;;;;;12.52;9.98;;;7.40;99.90;;;;;;4941628;29;20039;-87
2022/02/04 01:44:27;;;;;;;11.15;9.95;;;7.30;99.90;;;;;;4937749;29;20054;-86
2022/02/04 01:46:53;;;;;;;13.13;10.52;;;7.50;99.90;;;;;;4936789;29;20040;-86
2022/02/04 01:49:19;;;;;;;11.60;10.40;;;7.50;99.90;;;;;;4941450;29;20027;-86
2022/02/04 01:51:45;;;;;;;12.43;10.70;;;7.70;99.90;;;;;;4940399;29;20075;-87
2022/02/04 01:54:12;;;;;;;12.93;10.25;;;7.60;99.90;;;;;;4925620;29;20492;-87
2022/02/04 01:56:37;;;;;;;10.93;9.80;;;7.70;99.90;;;;;;4940600;29;20090;-86
2022/02/04 01:59:03;;;;;;;12.02;10.45;;;7.80;99.90;;;;;;4937782;29;20456;-87
2022/02/04 02:01:29;;;;;;;13.93;10.88;;;7.80;99.90;;;;;;4940039;29;20154;-87
2022/02/04 02:03:56;;;;;;;11.85;10.00;;;8.20;99.90;;;;;;4940996;29;20555;-87
2022/02/04 02:06:43;;;;;;;11.73;9.98;;;8.00;99.90;;;;;;4940362;29;20063;-86
2022/02/04 02:09:08;;;;;;;11.30;10.02;;;8.00;99.90;;;;;;4940471;29;20102;-87
2022/02/04 02:11:34;;;;;;;12.13;10.05;;;7.70;99.90;;;;;;4941047;29;20023;-87
2022/02/04 02:14:03;;;;;;;11.35;10.07;;;7.70;99.90;;;;;;4937133;28;20067;-87
2022/02/04 02:43:38;;;;;;;12.70;10.65;;;7.70;99.90;;;;;;4888719;29;20052;-87
2022/02/04 02:49:28;;;;;;;11.68;10.13;;;7.50;99.90;;;;;;4843585;29;20038;-86
2022/02/04 02:57:39;;;;;;;12.23;10.38;;;7.80;99.90;;;;;;4879823;29;20044;-85
2022/02/04 03:00:08;;;;;;;11.88;9.95;;;7.70;99.90;;;;;;4878850;29;20516;-87
2022/02/04 03:02:34;;;;;;;12.05;10.32;;;7.40;99.90;;;;;;4877684;29;20127;-87
2022/02/04 03:05:00;;;;;;;11.50;9.68;;;7.70;99.90;;;;;;4878009;29;20458;-86
2022/02/04 03:07:25;;;;;;;11.15;9.77;;;7.40;99.90;;;;;;4877541;29;20454;-87
2022/02/04 03:09:51;;;;;;;13.18;9.80;;;7.80;99.90;;;;;;4880607;29;20033;-87
2022/02/04 03:12:17;;;;;;;12.52;10.55;;;7.30;99.90;;;;;;4879612;29;20632;-89
2022/02/04 03:14:43;;;;;;;11.73;10.10;;;7.30;99.90;;;;;;4861773;29;20449;-89
2022/02/04 03:17:11;;;;;;;11.60;9.90;;;7.50;99.90;;;;;;4878466;29;20029;-88
2022/02/04 03:19:39;;;;;;;11.18;9.85;;;7.10;99.90;;;;;;4877289;29;20041;-89
2022/02/04 03:22:10;;;;;;;11.48;10.35;;;7.50;99.90;;;;;;4861380;29;20617;-89
2022/02/04 03:24:35;;;;;;;11.38;9.88;;;7.00;99.90;;;;;;4877617;29;20061;-89
2022/02/04 03:27:07;;;;;;;11.23;10.02;;;7.60;99.90;;;;;;4936770;29;20436;-89
2022/02/04 03:29:51;;;;;;;10.48;9.38;;;6.90;99.90;;;;;;4920435;29;20023;-88
2022/02/04 03:32:20;;;;;;;10.50;9.15;;;6.90;99.90;;;;;;4918349;29;20059;-88
2022/02/04 03:34:45;;;;;;;10.70;9.55;;;7.40;99.90;;;;;;4950366;29;20107;-88
2022/02/04 03:37:12;;;;;;;12.57;9.25;;;6.80;99.90;;;;;;4939601;29;20549;-89
2022/02/04 03:39:38;;;;;;;10.15;9.07;;;6.90;99.90;;;;;;4939075;29;20023;-89
2022/02/04 03:42:03;;;;;;;10.55;9.05;;;7.20;99.90;;;;;;4921948;29;20054;-89
2022/02/04 03:44:30;;;;;;;10.35;8.95;;;6.90;99.90;;;;;;4923779;29;20027;-89
2022/02/04 03:46:55;;;;;;;10.80;9.52;;;7.40;99.90;;;;;;4934870;29;20506;-87
2022/02/04 03:49:21;;;;;;;11.23;8.70;;;6.90;99.90;;;;;;4922328;29;20055;-89
2022/02/04 03:51:47;;;;;;;11.60;9.25;;;7.20;99.90;;;;;;4939702;29;20032;-88
2022/02/04 03:54:13;;;;;;;12.73;9.20;;;7.00;99.90;;;;;;4939376;29;20039;-89
2022/02/04 03:56:38;;;;;;;9.30;8.30;;;7.20;99.90;;;;;;4922178;29;20027;-89
2022/02/04 03:59:04;;;;;;;10.32;8.90;;;6.60;99.90;;;;;;4918792;29;20416;-89
2022/02/04 04:01:30;;;;;;;9.25;8.10;;;6.70;99.90;;;;;;4920261;29;20080;-89
2022/02/04 04:03:55;;;;;;;10.20;8.77;;;7.00;99.90;;;;;;4939283;29;20523;-89
2022/02/04 04:06:21;;;;;;;9.38;8.38;;;7.20;99.90;;;;;;4939252;29;20074;-88
2022/02/04 04:08:51;;;;;;;9.80;8.68;;;7.00;99.90;;;;;;4922642;29;20027;-89
2022/02/04 04:11:17;;;;;;;9.27;7.95;;;7.20;99.90;;;;;;4937170;29;20028;-89
2022/02/04 04:13:43;;;;;;;9.07;7.75;;;6.70;99.90;;;;;;4919203;29;20472;-89
2022/02/04 04:16:08;;;;;;;8.80;7.60;;;7.20;99.90;;;;;;4939290;29;20827;-88
2022/02/04 04:18:34;;;;;;;8.30;7.05;;;6.60;99.90;;;;;;4938981;29;20032;-89
2022/02/04 04:21:01;;;;;;;9.48;7.50;;;6.80;99.90;;;;;;4929068;29;20073;-87
2022/02/04 04:23:28;;;;;;;8.45;7.47;;;6.70;99.90;;;;;;4945997;29;20032;-89
2022/02/04 04:25:54;;;;;;;9.30;8.05;;;7.10;99.90;;;;;;4919694;29;20111;-88
2022/02/04 04:28:19;;;;;;;9.27;7.63;;;6.90;99.90;;;;;;4939664;29;20062;-89
2022/02/04 04:30:45;;;;;;;9.98;8.50;;;7.00;99.90;;;;;;4938338;29;20056;-88
2022/02/04 04:33:11;;;;;;;10.20;8.25;;;6.90;99.90;;;;;;4938573;29;20032;-88
2022/02/04 04:35:37;;;;;;;10.00;7.78;;;6.70;99.90;;;;;;4938968;29;20023;-89
2022/02/04 04:38:11;;;;;;;9.45;7.55;;;6.40;99.90;;;;;;4936313;29;20488;-89
2022/02/04 05:29:13;;;;;;;8.02;6.50;;;5.40;99.90;;;;;;4938481;29;20036;-86
2022/02/04 05:31:38;;;;;;;8.50;7.10;;;5.00;99.90;;;;;;4938987;29;20114;-86
2022/02/04 05:34:04;;;;;;;8.65;6.50;;;5.00;99.90;;;;;;4940616;29;20106;-87
2022/02/04 05:36:33;;;;;;;7.57;6.57;;;5.00;99.90;;;;;;4923770;29;20492;-87
2022/02/04 05:38:59;;;;;;;7.90;6.40;;;5.10;99.90;;;;;;4940194;29;20035;-86
2022/02/04 05:41:29;;;;;;;8.07;6.05;;;5.10;99.90;;;;;;4939771;29;20046;-88
2022/02/04 05:43:59;;;;;;;8.05;6.93;;;5.10;99.90;;;;;;4921311;29;20107;-88
2022/02/04 05:46:30;;;;;;;7.35;6.07;;;5.80;99.90;;;;;;4921975;29;20819;-88
2022/02/04 05:48:57;;;;;;;7.43;6.25;;;5.10;99.90;;;;;;4932169;28;20380;-87
2022/02/04 05:54:24;;;;;;;8.45;6.70;;;4.80;99.90;;;;;;4939568;29;20036;-87
2022/02/04 05:59:44;;;;;;;8.82;7.13;;;5.40;99.90;;;;;;4937875;29;20111;-87
2022/02/04 06:02:34;;;;;;;8.82;7.40;;;4.80;99.90;;;;;;4923402;29;20495;-87
2022/02/04 06:05:14;;;;;;;10.88;9.02;;;5.30;99.90;;;;;;4919373;29;20576;-88
2022/02/04 06:24:05;;;;;;;18.95;13.40;;;4.50;99.90;;;;;;4915507;29;20091;-86
2022/02/04 06:26:32;;;;;;;16.73;12.88;;;5.00;99.90;;;;;;4915089;29;20031;-87
2022/02/04 06:28:58;;;;;;;16.23;12.13;;;4.70;99.90;;;;;;4894593;29;20021;-87
2022/02/04 06:31:24;;;;;;;18.80;12.05;;;4.70;99.90;;;;;;4902124;29;20652;-87
2022/02/04 06:33:50;;;;;;;16.92;11.68;;;4.80;99.90;;;;;;4917010;29;20036;-89
2022/02/04 06:36:16;;;;;;;17.23;12.95;;;4.90;99.90;;;;;;4897326;29;20056;-86
2022/02/04 06:38:42;;;;;;;13.95;10.57;;;4.90;99.90;;;;;;4904916;29;20031;-87
2022/02/04 06:41:07;;;;;;;12.48;9.80;;;4.80;99.90;;;;;;4897176;29;20043;-87
2022/02/04 06:43:35;;;;;;;14.50;10.48;;;4.90;99.90;;;;;;4916166;29;20130;-87
2022/02/04 06:46:01;;;;;;;15.18;11.50;;;5.00;99.90;;;;;;4917082;29;20055;-87
2022/02/04 06:48:26;;;;;;;15.13;11.45;;;5.60;99.90;;;;;;4916159;29;20028;-86
2022/02/04 06:50:52;;;;;;;16.45;11.45;;;5.40;99.90;;;;;;4918097;29;20040;-85
2022/02/04 06:53:18;;;;;;;11.55;9.52;;;5.30;99.90;;;;;;4918241;29;20034;-88
2022/02/04 06:55:43;;;;;;;12.70;9.15;;;5.40;99.90;;;;;;4917133;29;20055;-87
2022/02/04 06:58:11;;;;;;;13.68;9.07;;;5.50;99.90;;;;;;4929461;29;20174;-88
2022/02/04 07:00:36;;;;;;;15.73;8.90;;;5.50;99.90;;;;;;4921746;29;20034;-88
2022/02/04 07:03:03;;;;;;;13.23;10.38;;;5.50;99.90;;;;;;4919471;29;20036;-89
2022/02/04 07:05:37;;;;;;;10.25;8.50;;;5.90;99.90;;;;;;4920424;29;20031;-88
2022/02/04 07:08:10;;;;;;;10.38;7.97;;;6.00;99.90;;;;;;4901987;29;20450;-87
2022/02/04 07:10:59;;;;;;;11.30;8.30;;;5.30;99.90;;;;;;4917230;29;20028;-86
2022/02/04 07:13:30;;;;;;;11.75;8.32;;;5.80;99.90;;;;;;4919338;29;20059;-87
2022/02/04 07:21:24;;;;;;;9.23;7.35;;;5.70;99.90;;;;;;4919397;29;20060;-88
2022/02/04 07:23:50;;;;;;;10.38;8.52;;;5.60;99.90;;;;;;4922493;29;20031;-90
2022/02/04 07:26:16;;;;;;;12.13;7.78;;;5.60;99.90;;;;;;4943588;29;20548;-87
2022/02/04 07:28:41;;;;;;;11.82;8.35;;;6.20;99.90;;;;;;4915482;29;20167;-88
2022/02/04 07:31:32;;;;;;;10.98;8.02;;;5.30;99.90;;;;;;4920357;29;20032;-87
2022/02/04 07:34:14;;;;;;;12.30;8.18;;;5.60;99.90;;;;;;4919513;29;20501;-87
2022/02/04 07:41:59;;;;;;;10.98;7.75;;;6.40;99.90;;;;;;4921651;29;20051;-87
2022/02/04 07:44:25;;;;;;;11.63;7.40;;;6.50;99.90;;;;;;4938215;29;20135;-88
2022/02/04 07:46:51;;;;;;;13.30;7.85;;;6.60;99.90;;;;;;4934277;29;20063;-87
2022/02/04 07:49:18;;;;;;;11.48;8.35;;;6.40;99.90;;;;;;4938297;29;20047;-87
2022/02/04 07:51:44;;;;;;;15.25;8.50;;;6.20;99.90;;;;;;4938450;29;20698;-88
2022/02/04 07:54:09;;;;;;;17.98;9.50;;;6.30;99.90;;;;;;4937745;29;20126;-86
2022/02/04 07:56:35;;;;;;;14.15;9.25;;;6.30;99.90;;;;;;4937329;29;20029;-88
2022/02/04 07:59:08;;;;;;;16.90;10.18;;;6.20;99.90;;;;;;4934929;29;20384;-95
2022/02/04 08:01:34;;;;;;;14.63;10.00;;;6.00;99.90;;;;;;4954101;29;20122;-94
2022/02/04 08:04:15;;;;;;;13.25;9.05;;;6.20;99.90;;;;;;4940686;29;20043;-92
2022/02/04 08:06:47;;;;;;;16.73;8.85;;;6.70;99.90;;;;;;4938800;29;20046;-96
2022/02/04 08:36:03;;;;;;;15.80;10.35;;;7.30;99.90;;;;;;4942640;29;20027;-88
2022/02/04 08:38:35;;;;;;;11.95;9.05;;;7.30;99.90;;;;;;4941369;29;20050;-89
2022/02/04 08:54:33;;;;;;;12.85;9.00;;;7.80;99.90;;;;;;4950775;29;20455;-89
2022/02/04 08:57:18;;;;;;;14.07;9.73;;;8.00;99.90;;;;;;4949093;29;20027;-89
2022/02/04 09:02:18;;;;;;;16.38;9.65;;;8.40;99.90;;;;;;4939951;29;20056;-88
2022/02/04 09:04:48;;;;;;;16.05;9.32;;;8.50;99.90;;;;;;4939101;29;20484;-91
2022/02/04 09:07:17;;;;;;;14.40;10.40;;;8.10;99.90;;;;;;4940739;29;20050;-88
2022/02/04 09:18:07;;;;;;;16.92;9.93;;;8.70;99.90;;;;;;4941820;29;20102;-89
2022/02/04 09:20:32;;;;;;;12.50;9.45;;;8.60;99.90;;;;;;4940420;29;20019;-88
2022/02/04 09:22:57;;;;;;;12.73;9.45;;;9.00;99.90;;;;;;4953080;29;20039;-88
2022/02/04 09:25:24;;;;;;;16.23;9.10;;;8.70;99.90;;;;;;4948667;29;20387;-89
2022/02/04 09:27:50;;;;;;;11.02;8.75;;;8.60;99.90;;;;;;4942170;29;20485;-88
2022/02/04 09:30:17;;;;;;;15.70;9.23;;;9.00;99.90;;;;;;4941408;29;20028;-88
2022/02/04 09:32:43;;;;;;;13.65;8.63;;;9.50;99.90;;;;;;4941414;29;20456;-89
2022/02/04 09:35:18;;;;;;;15.45;9.50;;;9.60;99.90;;;;;;4920348;29;20032;-88
2022/02/04 09:37:46;;;;;;;13.90;8.68;;;9.60;99.90;;;;;;4939067;29;20036;-89
2022/02/04 09:40:13;;;;;;;15.95;9.82;;;9.80;99.90;;;;;;4942029;29;20024;-88
2022/02/04 09:42:39;;;;;;;12.77;8.43;;;10.50;99.90;;;;;;4940953;29;20138;-89
2022/02/04 09:45:06;;;;;;;13.40;8.43;;;10.20;99.90;;;;;;4941487;29;20123;-88
2022/02/04 09:47:37;;;;;;;14.38;9.18;;;10.00;99.90;;;;;;4941317;29;20046;-88
2022/02/04 09:50:06;;;;;;;13.65;8.85;;;10.30;99.90;;;;;;4919866;29;20500;-88
2022/02/04 10:17:07;;;;;;;8.57;7.68;;;10.50;99.90;;;;;;4950082;29;20400;-89
2022/02/04 10:22:20;;;;;;;8.93;6.07;;;11.10;99.90;;;;;;4941428;29;20055;-89
2022/02/04 10:25:03;;;;;;;10.10;7.18;;;11.00;99.90;;;;;;4940362;29;20479;-89
2022/02/04 10:27:34;;;;;;;9.27;7.50;;;10.90;99.90;;;;;;4940371;29;20024;-89
2022/02/04 10:30:07;;;;;;;10.02;7.88;;;10.90;99.90;;;;;;4926174;29;20016;-89
2022/02/04 10:32:33;;;;;;;9.80;8.50;;;10.60;99.90;;;;;;4939996;29;20488;-89
2022/02/04 10:35:03;;;;;;;10.90;8.50;;;10.70;99.90;;;;;;4935890;29;20028;-88
2022/02/04 10:37:31;;;;;;;10.18;7.30;;;10.20;99.90;;;;;;4948205;29;20114;-88
2022/02/04 10:40:09;;;;;;;7.05;5.00;;;10.40;99.90;;;;;;4940783;29;20038;-88
2022/02/04 10:42:44;;;;;;;5.72;5.20;;;9.90;99.90;;;;;;4939680;29;20075;-89
2022/02/04 10:56:20;;;;;;;11.20;6.57;;;10.20;99.90;;;;;;4936228;29;20079;-88
2022/02/04 11:31:23;;;;;;;10.13;6.82;;;9.80;99.90;;;;;;4912365;29;20039;-88
2022/02/04 11:37:00;;;;;;;6.47;5.82;;;10.30;99.90;;;;;;4911003;29;20040;-88
2022/02/04 11:57:03;;;;;;;8.18;6.20;;;11.00;99.90;;;;;;4857532;29;20034;-88
2022/02/04 11:59:35;;;;;;;8.25;6.15;;;11.60;99.90;;;;;;4837909;29;20442;-89
2022/02/04 12:02:02;;;;;;;9.13;5.90;;;12.30;99.90;;;;;;4856799;29;20049;-88
2022/02/04 12:04:29;;;;;;;7.50;5.88;;;12.40;99.90;;;;;;4855053;29;20026;-89
2022/02/04 12:06:55;;;;;;;8.07;6.03;;;12.00;99.90;;;;;;4857779;29;20037;-88
2022/02/04 12:09:33;;;;;;;8.50;6.10;;;12.30;99.90;;;;;;4853525;29;20068;-88
2022/02/04 12:11:59;;;;;;;16.30;6.43;;;12.30;99.90;;;;;;4857308;29;20037;-88
2022/02/04 12:14:35;;;;;;;9.18;6.47;;;12.70;99.90;;;;;;4854200;29;20119;-89
2022/02/04 12:17:07;;;;;;;14.32;7.20;;;13.30;99.90;;;;;;4857431;29;20029;-89
2022/02/04 12:19:38;;;;;;;8.60;6.25;;;13.50;99.90;;;;;;4857600;29;20060;-88
2022/02/04 12:22:06;;;;;;;7.00;5.35;;;13.70;99.90;;;;;;4857832;29;20073;-88
2022/02/04 12:24:37;;;;;;;6.32;5.38;;;13.90;99.90;;;;;;4857135;29;20046;-89
2022/02/04 12:27:30;;;;;;;7.97;5.22;;;13.90;99.90;;;;;;4856952;29;20037;-88
2022/02/04 12:29:57;;;;;;;6.75;5.22;;;14.10;99.90;;;;;;4922715;29;20059;-88
2022/02/04 12:32:23;;;;;;;7.32;5.18;;;14.20;99.90;;;;;;4938168;29;20042;-89
2022/02/04 12:34:49;;;;;;;7.20;5.45;;;13.30;99.90;;;;;;4935492;29;20040;-88
2022/02/04 12:37:16;;;;;;;8.70;5.63;;;13.60;99.90;;;;;;4938833;29;20032;-89
2022/02/04 12:39:42;;;;;;;9.20;5.20;;;13.60;99.90;;;;;;4922819;29;20385;-88
2022/02/04 12:42:10;;;;;;;5.20;4.20;;;13.60;99.90;;;;;;4938299;29;20063;-89
2022/02/04 12:44:37;;;;;;;5.80;4.65;;;14.00;99.90;;;;;;4938026;29;20031;-89
2022/02/04 12:47:08;;;;;;;5.07;4.57;;;14.10;99.90;;;;;;4918773;29;20032;-88
2022/02/04 12:49:44;;;;;;;7.10;4.65;;;14.50;99.90;;;;;;4935673;29;20038;-88
2022/02/04 12:52:20;;;;;;;6.07;5.13;;;14.90;99.90;;;;;;4937159;29;20031;-88
2022/02/04 12:54:54;;;;;;;6.15;4.95;;;13.90;99.90;;;;;;4938310;29;20384;-89
2022/02/04 13:08:18;;;;;;;4.82;4.13;;;18.50;99.90;;;;;;4937827;29;20042;-89
2022/02/04 13:10:54;;;;;;;3.50;2.97;;;21.00;99.90;;;;;;4951376;29;20031;-89
2022/02/04 13:13:20;;;;;;;4.10;2.60;;;22.50;99.90;;;;;;4942202;29;20111;-89
2022/02/04 13:15:46;;;;;;;4.93;2.45;;;23.20;99.90;;;;;;4941848;29;20122;-89
2022/02/04 13:18:14;;;;;;;3.17;2.20;;;23.40;99.90;;;;;;4925195;29;20500;-89
2022/02/04 13:20:48;;;;;;;2.50;2.30;;;23.50;99.90;;;;;;4941309;29;20130;-89
2022/02/04 13:23:22;;;;;;;2.65;2.42;;;22.80;99.90;;;;;;4939286;29;20145;-89
2022/02/04 13:25:50;;;;;;;4.38;2.30;;;23.50;99.90;;;;;;4921589;29;20086;-89
2022/02/04 13:28:17;;;;;;;2.38;2.10;;;23.60;99.90;;;;;;4941576;29;20028;-89
2022/02/04 13:30:59;;;;;;;3.38;1.80;;;23.40;99.90;;;;;;4942081;29;20596;-89
2022/02/04 13:33:26;;;;;;;3.67;2.30;;;24.10;99.90;;;;;;4941255;29;20035;-89
2022/02/04 13:41:27;;;;;;;2.50;2.10;;;22.30;99.90;;;;;;4938690;29;20044;-89
2022/02/04 13:44:26;;;;;;;4.03;2.30;;;20.00;99.90;;;;;;4937508;29;20197;-89
2022/02/04 13:47:00;;;;;;;2.30;2.10;;;20.90;99.90;;;;;;4952145;29;20039;-89
2022/02/04 13:49:59;;;;;;;2.20;2.00;;;21.70;99.90;;;;;;4948582;29;20028;-90
2022/02/04 13:52:45;;;;;;;2.30;2.10;;;20.20;99.90;;;;;;4948949;29;20436;-89
2022/02/04 13:58:37;;;;;;;2.80;2.00;;;22.30;99.90;;;;;;4940722;29;20043;-89
2022/02/04 14:01:33;;;;;;;1.92;1.80;;;22.20;99.90;;;;;;4941411;29;20047;-89
2022/02/04 14:04:00;;;;;;;4.28;2.33;;;21.90;99.90;;;;;;4940545;29;20432;-89
2022/02/04 14:06:29;;;;;;;4.00;2.35;;;21.70;99.90;;;;;;4941057;29;20038;-89
2022/02/04 14:08:58;;;;;;;4.82;2.20;;;21.80;99.90;;;;;;4940608;29;20106;-90
2022/02/04 14:11:37;;;;;;;2.00;1.80;;;21.90;99.90;;;;;;4938801;29;20074;-89
2022/02/04 14:14:23;;;;;;;2.28;1.80;;;21.70;99.90;;;;;;4904710;29;20028;-89
2022/02/04 14:17:01;;;;;;;3.10;1.85;;;21.80;99.90;;;;;;4937787;29;20090;-89
2022/02/04 14:19:28;;;;;;;3.00;2.10;;;21.60;99.90;;;;;;4940775;29;20114;-89
2022/02/04 14:21:54;;;;;;;3.53;2.15;;;21.70;99.90;;;;;;4923702;29;20051;-89
2022/02/04 14:24:21;;;;;;;8.20;2.50;;;20.70;99.90;;;;;;4924298;29;20030;-89
2022/02/04 14:26:50;;;;;;;3.63;2.00;;;21.30;99.90;;;;;;4923242;29;20074;-89
2022/02/04 14:29:24;;;;;;;3.08;2.00;;;21.20;99.90;;;;;;4936107;29;20075;-89
2022/02/04 15:03:37;;;;;;;4.75;2.00;;;14.40;99.90;;;;;;4939611;29;20922;-89
2022/02/04 15:06:13;;;;;;;3.40;2.10;;;14.00;99.90;;;;;;4922571;29;20059;-88
2022/02/04 15:08:40;;;;;;;2.47;2.03;;;13.90;99.90;;;;;;4939048;29;20035;-88
2022/02/04 15:11:15;;;;;;;2.30;2.10;;;13.30;99.90;;;;;;4920895;29;20016;-89
2022/02/04 15:13:42;;;;;;;2.10;1.90;;;13.30;99.90;;;;;;4937794;29;20035;-88
2022/02/04 15:16:09;;;;;;;3.08;1.92;;;13.60;99.90;;;;;;4937929;29;20107;-88
2022/02/04 15:18:39;;;;;;;5.32;2.30;;;13.60;99.90;;;;;;4923120;29;20083;-88
2022/02/04 15:21:12;;;;;;;2.45;2.00;;;13.60;99.90;;;;;;4939350;29;20028;-88
2022/02/04 15:23:39;;;;;;;3.03;2.10;;;13.30;99.90;;;;;;4938996;29;20110;-88
2022/02/04 15:26:06;;;;;;;4.07;2.28;;;13.00;99.90;;;;;;4935969;29;20571;-88
2022/02/04 15:28:42;;;;;;;3.67;2.05;;;12.80;99.90;;;;;;4938414;29;20051;-88
2022/02/04 15:31:16;;;;;;;3.35;2.00;;;12.90;99.90;;;;;;4931391;29;20427;-88
2022/02/04 15:33:44;;;;;;;3.83;2.25;;;12.80;99.90;;;;;;4940506;29;20393;-88
2022/02/04 15:36:10;;;;;;;2.63;2.20;;;12.90;99.90;;;;;;4938987;29;20179;-89
2022/02/04 15:38:36;;;;;;;2.42;2.10;;;13.10;99.90;;;;;;4921628;29;20118;-88
2022/02/04 15:41:02;;;;;;;4.45;2.00;;;13.20;99.90;;;;;;4918693;29;20412;-88
2022/02/04 15:43:30;;;;;;;2.65;2.00;;;13.60;99.90;;;;;;4938771;29;20405;-89
2022/02/04 15:46:34;;;;;;;2.47;2.20;;;13.20;99.90;;;;;;4939009;29;20067;-88
2022/02/04 15:54:36;;;;;;;3.55;2.05;;;12.20;99.90;;;;;;4939467;29;20083;-88
2022/02/04 16:04:48;;;;;;;3.55;1.80;;;14.00;99.90;;;;;;4935677;29;20394;-88
2022/02/04 16:07:16;;;;;;;3.20;2.25;;;14.30;99.90;;;;;;4939083;29;20056;-88
2022/02/04 16:09:42;;;;;;;3.05;2.20;;;13.90;99.90;;;;;;4939219;29;20031;-88
2022/02/04 16:12:19;;;;;;;4.43;2.28;;;13.50;99.90;;;;;;4939467;29;20043;-88
2022/02/04 16:14:55;;;;;;;2.13;1.90;;;13.00;99.90;;;;;;4949973;29;20027;-88
2022/02/04 16:17:53;;;;;;;2.63;1.98;;;12.40;99.90;;;;;;4949645;29;20027;-87
2022/02/04 16:20:24;;;;;;;3.85;2.35;;;12.40;99.90;;;;;;4922187;29;20496;-88
2022/02/04 16:23:07;;;;;;;2.40;2.08;;;12.10;99.90;;;;;;4934852;29;20361;-88
2022/02/04 16:25:57;;;;;;;3.25;2.17;;;11.70;99.90;;;;;;4947602;29;20166;-88
2022/02/04 16:31:11;;;;;;;5.30;2.10;;;11.40;99.90;;;;;;4939829;29;20084;-88
2022/02/04 16:33:37;;;;;;;3.25;2.20;;;11.60;99.90;;;;;;4938596;29;20039;-88
2022/02/04 16:36:04;;;;;;;4.45;2.35;;;11.40;99.90;;;;;;4942037;29;20028;-88
2022/02/04 16:38:31;;;;;;;3.70;1.90;;;11.10;99.90;;;;;;4941949;29;20031;-88
2022/02/04 16:41:03;;;;;;;3.88;2.20;;;11.00;99.90;;;;;;4922770;29;20024;-88
2022/02/04 16:43:30;;;;;;;3.42;2.38;;;10.90;99.90;;;;;;4950410;28;20086;-88
2022/02/04 16:45:55;;;;;;;1.92;1.75;;;10.80;99.90;;;;;;4942654;29;20059;-88
2022/02/04 16:48:22;;;;;;;3.95;2.30;;;10.60;99.90;;;;;;4942193;29;20476;-88
2022/02/04 16:50:50;;;;;;;4.90;2.40;;;10.60;99.90;;;;;;4943865;29;20031;-88
2022/02/04 16:53:16;;;;;;;3.33;2.10;;;10.50;99.90;;;;;;4952755;29;20067;-88
2022/02/04 16:55:42;;;;;;;3.08;2.50;;;10.50;99.90;;;;;;4940004;29;20074;-88
2022/02/04 16:58:08;;;;;;;4.38;2.50;;;10.50;99.90;;;;;;4942465;29;20521;-88
2022/02/04 17:00:34;;;;;;;7.10;2.97;;;10.60;99.90;;;;;;4942122;29;20027;-88
2022/02/04 17:03:06;;;;;;;4.15;2.67;;;10.50;99.90;;;;;;4941792;29;20039;-88
2022/02/04 17:08:20;;;;;;;4.32;2.85;;;10.60;99.90;;;;;;4953268;29;20468;-88
2022/02/04 17:10:50;;;;;;;3.75;2.70;;;10.70;99.90;;;;;;4939186;29;20028;-88
2022/02/04 17:13:17;;;;;;;3.92;3.10;;;10.80;99.90;;;;;;4925117;29;20032;-88
2022/02/04 17:15:43;;;;;;;5.45;3.22;;;10.90;99.90;;;;;;4925063;29;20114;-89
2022/02/04 17:18:10;;;;;;;8.65;3.47;;;11.00;99.90;;;;;;4941375;29;20483;-88
2022/02/04 17:20:36;;;;;;;4.28;3.38;;;11.00;99.90;;;;;;4941181;29;20034;-89
2022/02/04 17:23:02;;;;;;;6.55;3.40;;;11.00;99.90;;;;;;4921364;29;20126;-88
2022/02/04 17:25:34;;;;;;;4.22;3.15;;;11.40;99.90;;;;;;4941294;29;20083;-89
2022/02/04 17:28:01;;;;;;;4.22;3.15;;;11.00;99.90;;;;;;4922853;29;20495;-88
2022/02/04 17:30:27;;;;;;;4.60;2.70;;;10.90;99.90;;;;;;4940901;29;20028;-88
2022/02/04 17:32:53;;;;;;;3.63;2.80;;;10.80;99.90;;;;;;4941352;29;20043;-88
2022/02/04 17:35:21;;;;;;;3.75;2.80;;;10.80;99.90;;;;;;4939369;29;20067;-88
2022/02/04 17:37:51;;;;;;;4.72;2.80;;;10.70;99.90;;;;;;4938582;29;20445;-88
2022/02/04 17:40:17;;;;;;;3.45;2.88;;;10.60;99.90;;;;;;4925549;29;20028;-88
2022/02/04 17:42:44;;;;;;;3.72;2.88;;;10.60;99.90;;;;;;4941149;29;20673;-88
2022/02/04 17:45:16;;;;;;;3.60;3.10;;;10.60;99.90;;;;;;4940362;29;20506;-88
2022/02/04 17:47:42;;;;;;;6.10;3.00;;;10.50;99.90;;;;;;4940824;29;20039;-88
2022/02/04 17:50:17;;;;;;;3.78;3.38;;;10.30;99.90;;;;;;4920366;29;20504;-88
2022/02/04 17:52:47;;;;;;;5.43;3.80;;;10.30;99.90;;;;;;4921887;29;20034;-88
2022/02/04 17:55:17;;;;;;;5.57;4.40;;;10.30;99.90;;;;;;4940043;29;20070;-88
2022/02/04 17:57:49;;;;;;;5.88;4.90;;;10.40;99.90;;;;;;4940616;29;20035;-88
2022/02/04 18:05:43;;;;;;;8.32;6.68;;;10.50;99.90;;;;;;4940470;29;20114;-88
2022/02/04 18:08:09;;;;;;;9.15;6.38;;;10.60;99.90;;;;;;4924235;29;20471;-89
2022/02/04 18:10:36;;;;;;;9.65;7.15;;;10.60;99.90;;;;;;4939620;29;20020;-88
2022/02/04 18:13:04;;;;;;;14.13;8.25;;;10.60;99.90;;;;;;4940963;29;20041;-88
2022/02/04 18:15:30;;;;;;;12.38;8.10;;;10.50;99.90;;;;;;4924464;29;20058;-85
2022/02/04 18:17:56;;;;;;;9.10;6.43;;;10.50;99.90;;;;;;4939258;29;20040;-85
2022/02/04 18:20:22;;;;;;;8.18;5.78;;;10.40;99.90;;;;;;4921718;29;20558;-84
2022/02/04 18:22:49;;;;;;;11.07;7.13;;;10.50;99.90;;;;;;4936694;29;20119;-84
2022/02/04 18:25:15;;;;;;;8.93;6.55;;;10.50;99.90;;;;;;4940579;29;20078;-86
2022/02/04 18:27:46;;;;;;;9.90;6.22;;;10.50;99.90;;;;;;4938952;29;20075;-84
2022/02/04 18:30:13;;;;;;;7.38;5.18;;;10.50;99.90;;;;;;4939676;29;20039;-84
2022/02/04 18:32:41;;;;;;;7.32;4.68;;;10.50;99.90;;;;;;4923089;29;20050;-85
2022/02/04 18:35:07;;;;;;;7.45;5.10;;;10.40;99.90;;;;;;4936343;29;20047;-84
2022/02/04 18:37:37;;;;;;;6.72;4.32;;;10.50;99.90;;;;;;4938504;29;20031;-85
2022/02/04 18:45:21;;;;;;;6.57;4.82;;;10.80;99.90;;;;;;4939021;29;20078;-85
2022/02/04 18:47:53;;;;;;;6.25;4.30;;;10.40;99.90;;;;;;4939033;29;20496;-84
2022/02/04 18:50:32;;;;;;;6.75;4.53;;;10.40;99.90;;;;;;4937534;29;20117;-85
2022/02/04 18:58:04;;;;;;;8.07;5.57;;;10.30;99.90;;;;;;4939086;28;20400;-84
2022/02/04 19:00:30;;;;;;;7.65;6.70;;;10.30;99.90;;;;;;4939355;29;20080;-85
2022/02/04 19:02:59;;;;;;;8.90;7.05;;;10.30;99.90;;;;;;4938792;29;20122;-85
2022/02/04 19:05:30;;;;;;;11.60;7.43;;;10.20;99.90;;;;;;4937827;29;20027;-85
2022/02/04 19:10:34;;;;;;;11.57;8.32;;;10.20;99.90;;;;;;4947165;29;20115;-84
2022/02/04 19:13:08;;;;;;;9.60;7.80;;;10.10;99.90;;;;;;4939144;29;20032;-84
2022/02/04 19:18:31;;;;;;;9.57;7.35;;;10.10;99.90;;;;;;4938568;29;20412;-85
2022/02/04 19:23:29;;;;;;;8.18;6.90;;;10.10;99.90;;;;;;4938473;29;20043;-85
2022/02/04 19:25:58;;;;;;;9.18;7.53;;;10.10;99.90;;;;;;4934449;29;20196;-85
2022/02/04 19:28:26;;;;;;;9.38;7.78;;;10.20;99.90;;;;;;4939723;29;20040;-84
2022/02/04 19:30:54;;;;;;;8.82;7.93;;;10.10;99.90;;;;;;4938085;29;20035;-85
2022/02/04 19:33:21;;;;;;;10.48;7.82;;;10.20;99.90;;;;;;4938507;29;20444;-85
2022/02/04 19:35:48;;;;;;;9.27;8.30;;;10.10;99.90;;;;;;4938040;29;20023;-85
2022/02/04 19:38:14;;;;;;;9.32;7.53;;;10.10;99.90;;;;;;4936298;29;20028;-85